sensor_id;sensor_type;location;lat;lon;timestamp;pressure;altitude;pressure_sealevel;temperature;humidity
46081;BME280;31821;51.880;-0.518;2022-08-19T00:00:46;100293.41;;;28.61;33.49
46081;BME280;31821;51.880;-0.518;2022-08-19T00:03:11;100286.28;;;28.53;32.95
46081;BME280;31821;51.880;-0.518;2022-08-19T00:05:37;100255.66;;;28.44;32.60
46081;BME280;31821;51.880;-0.518;2022-08-19T00:08:03;100299.69;;;28.73;33.20
46081;BME280;31821;51.880;-0.518;2022-08-19T00:10:28;100271.66;;;28.55;33.12
46081;BME280;31821;51.880;-0.518;2022-08-19T00:12:54;100269.25;;;28.53;32.65
46081;BME280;31821;51.880;-0.518;2022-08-19T00:15:21;100293.69;;;28.67;32.99
46081;BME280;31821;51.880;-0.518;2022-08-19T00:17:47;100270.41;;;28.56;32.54
46081;BME280;31821;51.880;-0.518;2022-08-19T00:20:16;100310.09;;;28.79;32.76
46081;BME280;31821;51.880;-0.518;2022-08-19T00:22:43;100297.97;;;28.55;33.07
46081;BME280;31821;51.880;-0.518;2022-08-19T00:25:09;100296.91;;;28.69;32.85
46081;BME280;31821;51.880;-0.518;2022-08-19T00:27:35;100297.22;;;28.75;32.64
46081;BME280;31821;51.880;-0.518;2022-08-19T00:30:03;100304.94;;;28.74;32.77
46081;BME280;31821;51.880;-0.518;2022-08-19T00:32:29;100285.03;;;28.54;33.31
46081;BME280;31821;51.880;-0.518;2022-08-19T00:34:54;100256.38;;;28.28;33.04
46081;BME280;31821;51.880;-0.518;2022-08-19T00:37:23;100301.13;;;28.61;33.41
46081;BME280;31821;51.880;-0.518;2022-08-19T00:39:49;100300.94;;;28.72;32.73
46081;BME280;31821;51.880;-0.518;2022-08-19T00:42:17;100305.81;;;28.71;32.81
46081;BME280;31821;51.880;-0.518;2022-08-19T00:44:42;100301.50;;;28.63;33.67
46081;BME280;31821;51.880;-0.518;2022-08-19T00:47:08;100282.69;;;28.49;33.92
46081;BME280;31821;51.880;-0.518;2022-08-19T00:49:37;100272.88;;;28.33;33.36
46081;BME280;31821;51.880;-0.518;2022-08-19T00:52:11;100271.41;;;28.45;33.63
46081;BME280;31821;51.880;-0.518;2022-08-19T00:54:39;100301.03;;;28.64;32.97
46081;BME280;31821;51.880;-0.518;2022-08-19T00:57:08;100302.34;;;28.60;33.02
46081;BME280;31821;51.880;-0.518;2022-08-19T00:59:36;100305.63;;;28.58;33.04
46081;BME280;31821;51.880;-0.518;2022-08-19T01:02:04;100298.44;;;28.54;34.05
46081;BME280;31821;51.880;-0.518;2022-08-19T01:04:29;100268.44;;;28.32;33.43
46081;BME280;31821;51.880;-0.518;2022-08-19T01:06:56;100270.03;;;28.33;32.70
46081;BME280;31821;51.880;-0.518;2022-08-19T01:09:22;100246.69;;;28.26;33.29
46081;BME280;31821;51.880;-0.518;2022-08-19T01:11:47;100292.75;;;28.54;32.53
46081;BME280;31821;51.880;-0.518;2022-08-19T01:14:14;100260.75;;;28.33;33.02
46081;BME280;31821;51.880;-0.518;2022-08-19T01:16:41;100271.88;;;28.44;33.59
46081;BME280;31821;51.880;-0.518;2022-08-19T01:19:15;100196.41;;;28.06;33.44
46081;BME280;31821;51.880;-0.518;2022-08-19T01:21:49;100280.34;;;28.67;33.42
46081;BME280;31821;51.880;-0.518;2022-08-19T01:24:18;100286.78;;;28.68;33.22
46081;BME280;31821;51.880;-0.518;2022-08-19T01:26:44;100281.19;;;28.64;33.13
46081;BME280;31821;51.880;-0.518;2022-08-19T01:29:10;100207.63;;;28.13;33.11
46081;BME280;31821;51.880;-0.518;2022-08-19T01:31:37;100254.94;;;28.40;33.30
46081;BME280;31821;51.880;-0.518;2022-08-19T01:34:04;100277.03;;;28.49;33.14
46081;BME280;31821;51.880;-0.518;2022-08-19T01:36:36;100300.16;;;28.47;33.80
46081;BME280;31821;51.880;-0.518;2022-08-19T01:39:06;100279.38;;;28.54;32.89
46081;BME280;31821;51.880;-0.518;2022-08-19T01:41:32;100291.09;;;28.56;33.54
46081;BME280;31821;51.880;-0.518;2022-08-19T01:43:59;100236.66;;;28.21;33.66
46081;BME280;31821;51.880;-0.518;2022-08-19T01:46:26;100295.88;;;28.59;33.40
46081;BME280;31821;51.880;-0.518;2022-08-19T01:48:51;100267.88;;;28.41;33.52
46081;BME280;31821;51.880;-0.518;2022-08-19T01:51:17;100249.53;;;28.26;33.49
46081;BME280;31821;51.880;-0.518;2022-08-19T01:53:47;100295.78;;;28.43;33.58
46081;BME280;31821;51.880;-0.518;2022-08-19T01:56:13;100220.28;;;28.09;33.64
46081;BME280;31821;51.880;-0.518;2022-08-19T01:58:45;100291.88;;;28.57;33.72
46081;BME280;31821;51.880;-0.518;2022-08-19T02:01:12;100224.44;;;28.00;33.24
46081;BME280;31821;51.880;-0.518;2022-08-19T02:03:39;100277.91;;;28.46;33.63
46081;BME280;31821;51.880;-0.518;2022-08-19T02:06:05;100229.03;;;28.18;33.16
46081;BME280;31821;51.880;-0.518;2022-08-19T02:08:32;100255.00;;;28.36;32.93
46081;BME280;31821;51.880;-0.518;2022-08-19T02:10:58;100280.22;;;28.51;33.58
46081;BME280;31821;51.880;-0.518;2022-08-19T02:13:27;100275.63;;;28.37;33.05
46081;BME280;31821;51.880;-0.518;2022-08-19T02:15:52;100248.44;;;28.19;33.36
46081;BME280;31821;51.880;-0.518;2022-08-19T02:18:18;100199.16;;;27.89;33.05
46081;BME280;31821;51.880;-0.518;2022-08-19T02:20:44;100268.34;;;28.36;33.59
46081;BME280;31821;51.880;-0.518;2022-08-19T02:23:11;100291.19;;;28.49;33.09
46081;BME280;31821;51.880;-0.518;2022-08-19T02:25:38;100261.31;;;28.24;32.97
46081;BME280;31821;51.880;-0.518;2022-08-19T02:28:04;100293.75;;;28.43;33.26
46081;BME280;31821;51.880;-0.518;2022-08-19T02:30:31;100287.19;;;28.46;33.21
46081;BME280;31821;51.880;-0.518;2022-08-19T02:32:57;100236.03;;;28.10;33.36
46081;BME280;31821;51.880;-0.518;2022-08-19T02:35:23;100294.91;;;28.46;33.28
46081;BME280;31821;51.880;-0.518;2022-08-19T02:37:49;100295.34;;;28.44;32.98
46081;BME280;31821;51.880;-0.518;2022-08-19T02:40:34;100267.41;;;28.23;33.74
46081;BME280;31821;51.880;-0.518;2022-08-19T02:43:05;100301.38;;;28.46;33.78
46081;BME280;31821;51.880;-0.518;2022-08-19T02:45:35;100293.25;;;28.48;33.21
46081;BME280;31821;51.880;-0.518;2022-08-19T02:48:02;100288.44;;;28.45;33.74
46081;BME280;31821;51.880;-0.518;2022-08-19T02:50:27;100213.69;;;27.92;33.55
46081;BME280;31821;51.880;-0.518;2022-08-19T02:52:53;100255.09;;;28.09;33.51
46081;BME280;31821;51.880;-0.518;2022-08-19T02:55:18;100209.31;;;27.87;33.68
46081;BME280;31821;51.880;-0.518;2022-08-19T02:57:46;100251.47;;;28.05;33.42
46081;BME280;31821;51.880;-0.518;2022-08-19T03:00:12;100237.22;;;28.12;33.24
46081;BME280;31821;51.880;-0.518;2022-08-19T03:02:38;100244.13;;;28.11;33.38
46081;BME280;31821;51.880;-0.518;2022-08-19T03:05:05;100261.66;;;28.26;33.82
46081;BME280;31821;51.880;-0.518;2022-08-19T03:07:31;100248.72;;;28.25;33.65
46081;BME280;31821;51.880;-0.518;2022-08-19T03:09:57;100298.84;;;28.52;33.65
46081;BME280;31821;51.880;-0.518;2022-08-19T03:12:23;100264.06;;;28.28;33.89
46081;BME280;31821;51.880;-0.518;2022-08-19T03:14:49;100281.69;;;28.39;33.94
46081;BME280;31821;51.880;-0.518;2022-08-19T03:17:14;100234.84;;;28.07;33.42
46081;BME280;31821;51.880;-0.518;2022-08-19T03:19:40;100267.50;;;28.39;34.10
46081;BME280;31821;51.880;-0.518;2022-08-19T03:22:05;100282.03;;;28.41;33.99
46081;BME280;31821;51.880;-0.518;2022-08-19T03:24:31;100237.69;;;28.07;33.53
46081;BME280;31821;51.880;-0.518;2022-08-19T03:26:57;100297.81;;;28.42;33.63
46081;BME280;31821;51.880;-0.518;2022-08-19T03:29:28;100294.53;;;28.44;33.62
46081;BME280;31821;51.880;-0.518;2022-08-19T03:31:54;100280.31;;;28.24;33.44
46081;BME280;31821;51.880;-0.518;2022-08-19T03:34:28;100295.63;;;28.30;33.77
46081;BME280;31821;51.880;-0.518;2022-08-19T03:36:56;100269.06;;;28.20;33.78
46081;BME280;31821;51.880;-0.518;2022-08-19T03:39:23;100258.38;;;28.04;33.74
46081;BME280;31821;51.880;-0.518;2022-08-19T03:41:51;100301.72;;;28.28;33.76
46081;BME280;31821;51.880;-0.518;2022-08-19T03:44:21;100304.97;;;28.27;33.46
46081;BME280;31821;51.880;-0.518;2022-08-19T03:46:53;100278.47;;;28.13;33.54
46081;BME280;31821;51.880;-0.518;2022-08-19T03:49:22;100281.31;;;28.13;34.21
46081;BME280;31821;51.880;-0.518;2022-08-19T03:51:49;100308.09;;;28.32;33.34
46081;BME280;31821;51.880;-0.518;2022-08-19T03:54:18;100288.28;;;28.32;33.53
46081;BME280;31821;51.880;-0.518;2022-08-19T03:56:46;100310.41;;;28.41;33.26
46081;BME280;31821;51.880;-0.518;2022-08-19T03:59:16;100307.56;;;28.41;33.44
46081;BME280;31821;51.880;-0.518;2022-08-19T04:01:42;100253.84;;;28.10;33.60
46081;BME280;31821;51.880;-0.518;2022-08-19T04:04:08;100260.34;;;28.07;33.77
46081;BME280;31821;51.880;-0.518;2022-08-19T04:06:36;100269.13;;;28.16;33.37
46081;BME280;31821;51.880;-0.518;2022-08-19T04:09:05;100306.09;;;28.33;34.14
46081;BME280;31821;51.880;-0.518;2022-08-19T04:11:41;100290.66;;;28.34;33.14
46081;BME280;31821;51.880;-0.518;2022-08-19T04:14:08;100304.50;;;28.32;33.33
46081;BME280;31821;51.880;-0.518;2022-08-19T04:16:35;100284.28;;;28.30;33.38
46081;BME280;31821;51.880;-0.518;2022-08-19T04:19:02;100311.56;;;28.44;33.17
46081;BME280;31821;51.880;-0.518;2022-08-19T04:21:28;100243.34;;;28.07;33.41
46081;BME280;31821;51.880;-0.518;2022-08-19T04:23:55;100285.66;;;28.22;33.86
46081;BME280;31821;51.880;-0.518;2022-08-19T04:26:24;100315.69;;;28.39;33.20
46081;BME280;31821;51.880;-0.518;2022-08-19T04:28:50;100282.59;;;28.09;33.93
46081;BME280;31821;51.880;-0.518;2022-08-19T04:31:22;100324.25;;;28.35;33.98
46081;BME280;31821;51.880;-0.518;2022-08-19T04:33:48;100324.44;;;28.25;34.32
46081;BME280;31821;51.880;-0.518;2022-08-19T04:36:26;100310.69;;;28.23;33.81
46081;BME280;31821;51.880;-0.518;2022-08-19T04:39:19;100325.88;;;28.36;34.07
46081;BME280;31821;51.880;-0.518;2022-08-19T04:41:46;100326.34;;;28.31;33.34
46081;BME280;31821;51.880;-0.518;2022-08-19T04:44:32;100304.06;;;28.06;33.75
46081;BME280;31821;51.880;-0.518;2022-08-19T04:46:58;100309.72;;;28.10;33.49
46081;BME280;31821;51.880;-0.518;2022-08-19T04:49:24;100269.59;;;27.87;33.89
46081;BME280;31821;51.880;-0.518;2022-08-19T04:51:51;100332.94;;;28.25;33.57
46081;BME280;31821;51.880;-0.518;2022-08-19T04:54:21;100331.41;;;28.20;33.96
46081;BME280;31821;51.880;-0.518;2022-08-19T04:56:52;100334.47;;;28.29;33.91
46081;BME280;31821;51.880;-0.518;2022-08-19T04:59:19;100336.22;;;28.23;33.25
46081;BME280;31821;51.880;-0.518;2022-08-19T05:01:46;100355.44;;;28.35;33.58
46081;BME280;31821;51.880;-0.518;2022-08-19T05:04:18;100300.31;;;27.89;34.08
46081;BME280;31821;51.880;-0.518;2022-08-19T05:06:45;100362.63;;;28.16;34.02
46081;BME280;31821;51.880;-0.518;2022-08-19T05:09:12;100358.25;;;28.12;33.97
46081;BME280;31821;51.880;-0.518;2022-08-19T05:11:38;100329.31;;;27.97;33.66
46081;BME280;31821;51.880;-0.518;2022-08-19T05:14:07;100361.03;;;28.15;34.30
46081;BME280;31821;51.880;-0.518;2022-08-19T05:16:34;100348.63;;;28.05;33.79
46081;BME280;31821;51.880;-0.518;2022-08-19T05:19:00;100250.97;;;27.35;34.05
46081;BME280;31821;51.880;-0.518;2022-08-19T05:21:44;100331.13;;;27.83;33.98
46081;BME280;31821;51.880;-0.518;2022-08-19T05:24:29;100369.25;;;28.06;33.94
46081;BME280;31821;51.880;-0.518;2022-08-19T05:26:56;100370.84;;;28.07;34.12
46081;BME280;31821;51.880;-0.518;2022-08-19T05:29:27;100368.53;;;27.98;34.45
46081;BME280;31821;51.880;-0.518;2022-08-19T05:31:53;100371.75;;;28.00;34.16
46081;BME280;31821;51.880;-0.518;2022-08-19T05:34:21;100375.88;;;27.96;34.54
46081;BME280;31821;51.880;-0.518;2022-08-19T05:36:48;100369.09;;;27.89;34.41
46081;BME280;31821;51.880;-0.518;2022-08-19T05:39:18;100378.28;;;27.97;34.37
46081;BME280;31821;51.880;-0.518;2022-08-19T05:41:53;100374.97;;;28.02;34.32
46081;BME280;31821;51.880;-0.518;2022-08-19T05:44:20;100315.16;;;27.69;33.89
46081;BME280;31821;51.880;-0.518;2022-08-19T05:46:47;100369.75;;;28.01;33.81
46081;BME280;31821;51.880;-0.518;2022-08-19T05:49:14;100375.03;;;27.99;33.84
46081;BME280;31821;51.880;-0.518;2022-08-19T05:51:41;100372.66;;;27.94;34.29
46081;BME280;31821;51.880;-0.518;2022-08-19T05:54:08;100343.03;;;27.74;33.93
46081;BME280;31821;51.880;-0.518;2022-08-19T05:56:36;100357.59;;;28.00;33.50
46081;BME280;31821;51.880;-0.518;2022-08-19T05:59:07;100382.84;;;28.18;33.85
46081;BME280;31821;51.880;-0.518;2022-08-19T06:01:36;100388.44;;;28.22;33.75
46081;BME280;31821;51.880;-0.518;2022-08-19T06:04:02;100354.50;;;27.91;33.77
46081;BME280;31821;51.880;-0.518;2022-08-19T06:06:28;100391.53;;;28.08;34.08
46081;BME280;31821;51.880;-0.518;2022-08-19T06:08:54;100339.75;;;27.76;34.35
46081;BME280;31821;51.880;-0.518;2022-08-19T06:11:25;100386.97;;;28.14;34.30
46081;BME280;31821;51.880;-0.518;2022-08-19T06:14:00;100402.69;;;28.18;34.12
46081;BME280;31821;51.880;-0.518;2022-08-19T06:16:27;100390.19;;;28.16;33.51
46081;BME280;31821;51.880;-0.518;2022-08-19T06:18:54;100368.66;;;27.91;33.53
46081;BME280;31821;51.880;-0.518;2022-08-19T06:21:24;100399.47;;;28.16;34.25
46081;BME280;31821;51.880;-0.518;2022-08-19T06:23:52;100401.38;;;28.23;33.87
46081;BME280;31821;51.880;-0.518;2022-08-19T06:26:18;100405.44;;;28.22;33.55
46081;BME280;31821;51.880;-0.518;2022-08-19T06:28:45;100409.50;;;28.21;33.69
46081;BME280;31821;51.880;-0.518;2022-08-19T06:31:16;100411.13;;;28.22;33.77
46081;BME280;31821;51.880;-0.518;2022-08-19T06:33:43;100381.84;;;28.01;33.46
46081;BME280;31821;51.880;-0.518;2022-08-19T06:36:49;100404.03;;;28.10;33.59
46081;BME280;31821;51.880;-0.518;2022-08-19T06:39:35;100412.34;;;28.21;33.48
46081;BME280;31821;51.880;-0.518;2022-08-19T06:42:02;100372.56;;;28.01;33.83
46081;BME280;31821;51.880;-0.518;2022-08-19T06:44:31;100403.53;;;28.15;33.83
46081;BME280;31821;51.880;-0.518;2022-08-19T06:47:01;100370.25;;;27.92;33.96
46081;BME280;31821;51.880;-0.518;2022-08-19T06:49:27;100422.06;;;28.20;34.00
46081;BME280;31821;51.880;-0.518;2022-08-19T06:51:56;100381.22;;;27.90;34.18
46081;BME280;31821;51.880;-0.518;2022-08-19T06:54:23;100428.13;;;28.22;33.87
46081;BME280;31821;51.880;-0.518;2022-08-19T06:56:48;100404.44;;;28.09;33.68
46081;BME280;31821;51.880;-0.518;2022-08-19T06:59:17;100375.59;;;27.86;34.12
46081;BME280;31821;51.880;-0.518;2022-08-19T07:01:46;100383.09;;;28.00;33.74
46081;BME280;31821;51.880;-0.518;2022-08-19T07:04:15;100395.97;;;28.05;33.47
46081;BME280;31821;51.880;-0.518;2022-08-19T07:06:41;100430.50;;;28.24;33.52
46081;BME280;31821;51.880;-0.518;2022-08-19T07:09:08;100420.44;;;28.23;33.60
46081;BME280;31821;51.880;-0.518;2022-08-19T07:11:34;100427.66;;;28.27;33.99
46081;BME280;31821;51.880;-0.518;2022-08-19T07:14:00;100387.16;;;27.99;34.18
46081;BME280;31821;51.880;-0.518;2022-08-19T07:16:27;100436.94;;;28.28;33.50
46081;BME280;31821;51.880;-0.518;2022-08-19T07:18:53;100433.66;;;28.29;33.63
46081;BME280;31821;51.880;-0.518;2022-08-19T07:21:24;100435.28;;;28.30;33.76
46081;BME280;31821;51.880;-0.518;2022-08-19T07:23:52;100356.69;;;27.80;33.92
46081;BME280;31821;51.880;-0.518;2022-08-19T07:26:22;100430.91;;;28.26;33.50
46081;BME280;31821;51.880;-0.518;2022-08-19T07:28:48;100427.59;;;28.31;34.17
46081;BME280;31821;51.880;-0.518;2022-08-19T07:31:16;100436.09;;;28.31;33.83
46081;BME280;31821;51.880;-0.518;2022-08-19T07:33:44;100450.47;;;28.44;33.39
46081;BME280;31821;51.880;-0.518;2022-08-19T07:36:12;100449.47;;;28.54;33.28
46081;BME280;31821;51.880;-0.518;2022-08-19T07:38:42;100440.47;;;28.59;33.62
46081;BME280;31821;51.880;-0.518;2022-08-19T07:41:12;100451.34;;;28.64;33.51
46081;BME280;31821;51.880;-0.518;2022-08-19T07:43:39;100431.13;;;28.62;33.90
46081;BME280;31821;51.880;-0.518;2022-08-19T07:46:05;100419.91;;;28.55;33.20
46081;BME280;31821;51.880;-0.518;2022-08-19T07:48:32;100429.31;;;28.48;33.48
46081;BME280;31821;51.880;-0.518;2022-08-19T07:51:00;100437.81;;;28.48;33.37
46081;BME280;31821;51.880;-0.518;2022-08-19T07:53:30;100453.09;;;28.55;33.87
46081;BME280;31821;51.880;-0.518;2022-08-19T07:55:57;100439.44;;;28.49;33.61
46081;BME280;31821;51.880;-0.518;2022-08-19T07:58:31;100444.88;;;28.64;33.67
46081;BME280;31821;51.880;-0.518;2022-08-19T08:00:57;100427.25;;;28.52;33.62
46081;BME280;31821;51.880;-0.518;2022-08-19T08:03:23;100405.72;;;28.31;33.82
46081;BME280;31821;51.880;-0.518;2022-08-19T08:06:08;100377.56;;;28.20;33.53
46081;BME280;31821;51.880;-0.518;2022-08-19T08:08:52;100434.88;;;28.56;33.81
46081;BME280;31821;51.880;-0.518;2022-08-19T08:11:47;100404.34;;;28.40;33.33
46081;BME280;31821;51.880;-0.518;2022-08-19T08:14:22;100459.28;;;28.77;33.63
46081;BME280;31821;51.880;-0.518;2022-08-19T08:16:48;100425.31;;;28.46;33.29
46081;BME280;31821;51.880;-0.518;2022-08-19T08:19:15;100452.09;;;28.69;33.45
46081;BME280;31821;51.880;-0.518;2022-08-19T08:21:41;100377.94;;;28.23;34.04
46081;BME280;31821;51.880;-0.518;2022-08-19T08:24:07;100440.00;;;28.64;33.51
46081;BME280;31821;51.880;-0.518;2022-08-19T08:26:32;100430.38;;;28.58;34.23
46081;BME280;31821;51.880;-0.518;2022-08-19T08:28:58;100447.22;;;28.69;34.32
46081;BME280;31821;51.880;-0.518;2022-08-19T08:31:24;100380.63;;;28.30;33.58
46081;BME280;31821;51.880;-0.518;2022-08-19T08:33:49;100393.13;;;28.32;33.71
46081;BME280;31821;51.880;-0.518;2022-08-19T08:36:15;100464.06;;;28.80;33.64
46081;BME280;31821;51.880;-0.518;2022-08-19T08:38:42;100477.00;;;28.81;34.04
46081;BME280;31821;51.880;-0.518;2022-08-19T08:44:13;100396.28;;;28.38;33.73
46081;BME280;31821;51.880;-0.518;2022-08-19T08:46:44;100372.91;;;28.30;33.75
46081;BME280;31821;51.880;-0.518;2022-08-19T08:49:20;100469.41;;;28.98;33.03
46081;BME280;31821;51.880;-0.518;2022-08-19T08:52:08;100405.22;;;28.60;33.26
46081;BME280;31821;51.880;-0.518;2022-08-19T08:54:45;100452.16;;;28.89;33.32
46081;BME280;31821;51.880;-0.518;2022-08-19T08:57:18;100455.50;;;28.84;32.40
46081;BME280;31821;51.880;-0.518;2022-08-19T08:59:47;100461.19;;;28.84;33.17
46081;BME280;31821;51.880;-0.518;2022-08-19T09:02:18;100447.03;;;28.80;33.57
46081;BME280;31821;51.880;-0.518;2022-08-19T09:04:44;100494.78;;;29.09;33.65
46081;BME280;31821;51.880;-0.518;2022-08-19T09:09:40;100454.06;;;28.95;33.50
46081;BME280;31821;51.880;-0.518;2022-08-19T09:14:58;100452.78;;;29.00;32.57
46081;BME280;31821;51.880;-0.518;2022-08-19T09:17:29;100483.06;;;29.27;33.30
46081;BME280;31821;51.880;-0.518;2022-08-19T09:20:06;100487.97;;;29.26;33.15
46081;BME280;31821;51.880;-0.518;2022-08-19T09:22:40;100442.59;;;29.03;32.52
46081;BME280;31821;51.880;-0.518;2022-08-19T09:25:10;100485.50;;;29.28;32.46
46081;BME280;31821;51.880;-0.518;2022-08-19T09:27:38;100425.75;;;28.68;33.15
46081;BME280;31821;51.880;-0.518;2022-08-19T09:30:06;100430.19;;;28.69;32.33
46081;BME280;31821;51.880;-0.518;2022-08-19T09:32:32;100476.09;;;28.88;33.25
46081;BME280;31821;51.880;-0.518;2022-08-19T09:34:58;100497.31;;;29.03;33.17
46081;BME280;31821;51.880;-0.518;2022-08-19T09:37:26;100501.25;;;29.09;33.50
46081;BME280;31821;51.880;-0.518;2022-08-19T09:39:51;100497.97;;;29.11;33.40
46081;BME280;31821;51.880;-0.518;2022-08-19T09:42:18;100500.75;;;29.15;32.31
46081;BME280;31821;51.880;-0.518;2022-08-19T09:44:44;100501.19;;;29.13;33.55
46081;BME280;31821;51.880;-0.518;2022-08-19T09:47:12;100471.53;;;28.94;33.39
46081;BME280;31821;51.880;-0.518;2022-08-19T09:49:38;100492.53;;;29.20;32.93
46081;BME280;31821;51.880;-0.518;2022-08-19T09:52:05;100480.16;;;29.10;32.70
46081;BME280;31821;51.880;-0.518;2022-08-19T09:54:32;100432.06;;;28.79;32.28
46081;BME280;31821;51.880;-0.518;2022-08-19T09:56:58;100459.06;;;28.88;31.95
46081;BME280;31821;51.880;-0.518;2022-08-19T09:59:26;100513.88;;;29.28;32.03
46081;BME280;31821;51.880;-0.518;2022-08-19T10:01:52;100516.22;;;29.34;30.80
46081;BME280;31821;51.880;-0.518;2022-08-19T10:04:18;100444.19;;;29.04;29.45
46081;BME280;31821;51.880;-0.518;2022-08-19T10:06:44;100484.44;;;29.19;28.12
46081;BME280;31821;51.880;-0.518;2022-08-19T10:09:14;100504.91;;;29.30;28.50
46081;BME280;31821;51.880;-0.518;2022-08-19T10:11:41;100514.22;;;29.31;29.23
46081;BME280;31821;51.880;-0.518;2022-08-19T10:14:07;100471.13;;;29.16;29.08
46081;BME280;31821;51.880;-0.518;2022-08-19T10:16:33;100479.44;;;29.26;28.94
46081;BME280;31821;51.880;-0.518;2022-08-19T10:19:00;100457.16;;;29.05;27.68
46081;BME280;31821;51.880;-0.518;2022-08-19T10:21:29;100385.38;;;28.60;29.09
46081;BME280;31821;51.880;-0.518;2022-08-19T10:23:57;100411.44;;;28.79;28.28
46081;BME280;31821;51.880;-0.518;2022-08-19T10:26:26;100395.78;;;28.67;27.90
46081;BME280;31821;51.880;-0.518;2022-08-19T10:28:52;100511.75;;;29.56;28.81
46081;BME280;31821;51.880;-0.518;2022-08-19T10:31:27;100443.75;;;29.05;27.57
46081;BME280;31821;51.880;-0.518;2022-08-19T10:33:53;100504.25;;;29.46;28.21
46081;BME280;31821;51.880;-0.518;2022-08-19T10:36:31;100468.19;;;29.43;27.30
46081;BME280;31821;51.880;-0.518;2022-08-19T10:39:00;100474.16;;;29.49;28.45
46081;BME280;31821;51.880;-0.518;2022-08-19T10:41:31;100490.94;;;29.63;27.95
46081;BME280;31821;51.880;-0.518;2022-08-19T10:44:01;100476.06;;;29.55;27.50
46081;BME280;31821;51.880;-0.518;2022-08-19T10:46:28;100513.00;;;29.75;27.06
46081;BME280;31821;51.880;-0.518;2022-08-19T10:48:58;100386.91;;;28.89;26.97
46081;BME280;31821;51.880;-0.518;2022-08-19T10:51:24;100525.31;;;29.69;27.56
46081;BME280;31821;51.880;-0.518;2022-08-19T10:54:08;100532.81;;;29.79;26.98
46081;BME280;31821;51.880;-0.518;2022-08-19T10:56:35;100535.50;;;29.86;27.67
46081;BME280;31821;51.880;-0.518;2022-08-19T10:59:22;100515.31;;;29.81;26.86
46081;BME280;31821;51.880;-0.518;2022-08-19T11:01:49;100528.19;;;29.85;26.45
46081;BME280;31821;51.880;-0.518;2022-08-19T11:04:16;100523.38;;;29.82;26.67
46081;BME280;31821;51.880;-0.518;2022-08-19T11:06:46;100531.94;;;30.02;27.35
46081;BME280;31821;51.880;-0.518;2022-08-19T11:09:18;100527.94;;;30.00;24.46
46081;BME280;31821;51.880;-0.518;2022-08-19T11:11:44;100484.22;;;29.73;25.92
46081;BME280;31821;51.880;-0.518;2022-08-19T11:14:12;100531.19;;;29.98;25.90
46081;BME280;31821;51.880;-0.518;2022-08-19T11:16:39;100488.44;;;29.85;26.78
46081;BME280;31821;51.880;-0.518;2022-08-19T11:19:07;100485.88;;;29.91;26.22
46081;BME280;31821;51.880;-0.518;2022-08-19T11:21:39;100509.84;;;30.10;25.55
46081;BME280;31821;51.880;-0.518;2022-08-19T11:24:10;100487.47;;;29.92;25.53
46081;BME280;31821;51.880;-0.518;2022-08-19T11:26:38;100490.47;;;30.05;25.92
46081;BME280;31821;51.880;-0.518;2022-08-19T11:29:06;100448.44;;;29.76;24.38
46081;BME280;31821;51.880;-0.518;2022-08-19T11:31:36;100526.16;;;30.26;22.94
46081;BME280;31821;51.880;-0.518;2022-08-19T11:34:05;100497.25;;;30.11;25.09
46081;BME280;31821;51.880;-0.518;2022-08-19T11:36:32;100495.03;;;30.19;24.78
46081;BME280;31821;51.880;-0.518;2022-08-19T11:38:59;100445.66;;;29.93;25.28
46081;BME280;31821;51.880;-0.518;2022-08-19T11:41:25;100487.31;;;30.19;25.42
46081;BME280;31821;51.880;-0.518;2022-08-19T11:43:52;100474.81;;;29.97;25.09
46081;BME280;31821;51.880;-0.518;2022-08-19T11:46:22;100471.31;;;30.09;25.43
46081;BME280;31821;51.880;-0.518;2022-08-19T11:48:48;100434.25;;;29.96;24.77
46081;BME280;31821;51.880;-0.518;2022-08-19T11:51:20;100509.91;;;30.43;23.90
46081;BME280;31821;51.880;-0.518;2022-08-19T11:53:47;100516.13;;;30.38;24.49
46081;BME280;31821;51.880;-0.518;2022-08-19T11:56:12;100487.69;;;30.21;24.30
46081;BME280;31821;51.880;-0.518;2022-08-19T11:58:38;100515.66;;;30.40;24.82
46081;BME280;31821;51.880;-0.518;2022-08-19T12:01:06;100498.00;;;30.32;24.04
46081;BME280;31821;51.880;-0.518;2022-08-19T12:03:33;100521.00;;;30.37;23.22
46081;BME280;31821;51.880;-0.518;2022-08-19T12:06:06;100458.31;;;29.88;23.74
46081;BME280;31821;51.880;-0.518;2022-08-19T12:08:32;100517.09;;;30.48;23.53
46081;BME280;31821;51.880;-0.518;2022-08-19T12:10:58;100475.94;;;30.19;23.83
46081;BME280;31821;51.880;-0.518;2022-08-19T12:13:27;100503.69;;;30.48;23.84
46081;BME280;31821;51.880;-0.518;2022-08-19T12:15:53;100511.78;;;30.50;24.46
46081;BME280;31821;51.880;-0.518;2022-08-19T12:18:19;100370.34;;;29.48;23.78
46081;BME280;31821;51.880;-0.518;2022-08-19T12:20:44;100364.38;;;29.42;23.70
46081;BME280;31821;51.880;-0.518;2022-08-19T12:23:11;100485.63;;;30.22;23.88
46081;BME280;31821;51.880;-0.518;2022-08-19T12:25:44;100406.00;;;29.69;23.49
46081;BME280;31821;51.880;-0.518;2022-08-19T12:28:20;100506.72;;;30.41;22.74
46081;BME280;31821;51.880;-0.518;2022-08-19T12:30:48;100458.13;;;29.99;23.73
46081;BME280;31821;51.880;-0.518;2022-08-19T12:33:15;100356.59;;;29.46;23.87
46081;BME280;31821;51.880;-0.518;2022-08-19T12:35:42;100501.03;;;30.41;24.37
46081;BME280;31821;51.880;-0.518;2022-08-19T12:38:09;100475.84;;;30.23;23.47
46081;BME280;31821;51.880;-0.518;2022-08-19T12:40:35;100443.47;;;30.00;23.62
46081;BME280;31821;51.880;-0.518;2022-08-19T12:43:01;100513.72;;;30.36;23.88
46081;BME280;31821;51.880;-0.518;2022-08-19T12:45:27;100488.28;;;30.29;23.67
46081;BME280;31821;51.880;-0.518;2022-08-19T12:47:52;100460.03;;;30.05;24.18
46081;BME280;31821;51.880;-0.518;2022-08-19T12:50:18;100497.09;;;30.35;24.29
46081;BME280;31821;51.880;-0.518;2022-08-19T12:52:47;100453.16;;;30.03;23.97
46081;BME280;31821;51.880;-0.518;2022-08-19T12:55:13;100499.75;;;30.26;24.22